NCAR-RAP Real-Time Weather Data

Output produced by METARs form (08 May 2021  15:25 UTC)
found at http://weather.rap.ucar.edu/surface/
 
KHLN 081453Z 28020G30KT 10SM BKN044 06/M04 A2997 RMK AO2 PK WND 30032/1443 SLP170 T00611044 55000
KHLN 081353Z 26010G18KT 230V310 10SM CLR 04/M05 A2997 RMK AO2 PK WND 28026/1342 SLP170 T00441050
KHLN 081253Z 25010G25KT 10SM CLR 04/M06 A2997 RMK AO2 PK WND 25026/1215 SLP169 T00391061
KHLN 081153Z 26017G23KT 10SM FEW070 04/M06 A2997 RMK AO2 SLP170 70011 T00441061 10067 20044 51004
KHLN 081053Z AUTO 27013KT 10SM SCT120 04/M05 A2997 RMK AO2 SLP169 T00441050
KHLN 080953Z AUTO 28011KT 10SM SCT110 05/M04 A2996 RMK AO2 SLP161 T00501044
KHLN 080853Z AUTO 29011G23KT 10SM BKN110 05/M05 A2996 RMK AO2 SLP158 T00501050 58000
KHLN 080753Z AUTO 27018G26KT 10SM BKN110 06/M04 A2996 RMK AO2 PK WND 28026/0753 SLP153 T00561044
KHLN 080653Z AUTO 27010KT 10SM FEW070 SCT095 OVC110 06/M03 A2996 RMK AO2 SLP151 T00611033 401830061
KHLN 080553Z AUTO 27009KT 10SM OVC110 07/M02 A2996 RMK AO2 SLP151 60000 T00671022 10100 20061 50006
KHLN 080453Z AUTO 26010KT 10SM OVC110 07/M01 A2997 RMK AO2 SLP153 T00671011
KHLN 080353Z AUTO 27012G20KT 10SM SCT055 SCT080 BKN110 08/M01 A2996 RMK AO2 SLP151 T00781006
KHLN 080253Z AUTO 28011KT 10SM BKN039 OVC048 08/02 A2994 RMK AO2 RAB00E18 SLP145 P0000 60000 T00830017 51024
KHLN 080153Z 27010KT 10SM SCT048 OVC060 08/02 A2992 RMK AO2 SLP141 T00830022
KHLN 080053Z 28013G22KT 10SM FEW039 FEW047 OVC080 10/02 A2991 RMK AO2 RAB10E21 SLP136 P0000 T01000022
KHLN 072353Z 25013KT 10SM SCT043 BKN055 OVC070 10/04 A2986 RMK AO2 RAE46 SLP121 P0004 60011 T01000044 10183 20100 53008
KHLN 072253Z 24012KT 10SM -RA OVC050 11/06 A2985 RMK AO2 RAB2154 SLP113 P0005 T01060056
KHLN 072153Z 33006KT 10SM FEW034 BKN055 OVC075 12/08 A2983 RMK AO2 RAE51 SLP104 P0002 T01220083
KHLN 072053Z 30008KT 8SM -RA OVC070 13/08 A2983 RMK AO2 PK WND 27031/2001 RAB50 SLP104 P0000 60000 T01330078 55001
KHLN 071953Z 31012KT 10SM OVC080 17/05 A2983 RMK AO2 SLP097 T01720050
KHLN 071853Z 30010KT 10SM OVC080 18/04 A2983 RMK AO2 SLP096 T01830039
KHLN 071753Z 28012KT 10SM OVC075 17/04 A2984 RMK AO2 SLP095 T01720039 10178 20100 58015
KHLN 071653Z 29011KT 10SM OVC075 17/05 A2987 RMK AO2 SLP108 T01720050
KHLN 071553Z 29010KT 10SM SCT080 BKN095 BKN110 17/06 A2988 RMK AO2 SLP114 T01720056
KHLN 071453Z 00000KT 10SM SCT085 15/03 A2988 RMK AO2 SLP109 T01500028 51011
KHLN 071353Z 00000KT 10SM CLR 13/03 A2988 RMK AO2 SLP108 T01330033
KHLN 071253Z VRB03KT 10SM FEW055 SCT080 BKN095 12/03 A2987 RMK AO2 SLP102 T01170028
KHLN 071153Z 00000KT 10SM CLR 11/02 A2985 RMK AO2 SLP097 T01060017 10156 20106 56018
KHLN 071053Z 25006KT 10SM CLR 12/02 A2985 RMK AO2 SLP097 T01220017
KHLN 070953Z 11004KT 10SM CLR 13/02 A2986 RMK AO2 SLP102 T01280017
KHLN 070853Z 30004KT 10SM SCT110 13/01 A2991 RMK AO2 SLP116 T01330011 53006
KHLN 070753Z 00000KT 10SM CLR 13/01 A2987 RMK AO2 SLP107 T01280006
KHLN 070653Z 26003KT 10SM CLR 13/00 A2988 RMK AO2 SLP114 T01330000 402560022
KHLN 070553Z 00000KT 10SM CLR 16/M01 A2989 RMK AO2 SLP115 T01561006 10256 20144 50001
KHLN 070453Z 25004KT 10SM CLR 16/M01 A2989 RMK AO2 SLP122 T01611011
KHLN 070353Z 27006KT 10SM CLR 15/00 A2989 RMK AO2 SLP125 T01500000
KHLN 070253Z 28003KT 10SM CLR 21/M03 A2988 RMK AO2 SLP116 T02111028 56019
KHLN 070153Z 07005KT 10SM CLR 23/M02 A2989 RMK AO2 SLP119 T02281022
KHLN 070053Z 08009KT 10SM CLR 25/M03 A2992 RMK AO2 SLP130 T02501028
KHLN 062353Z 07008KT 10SM CLR 25/M01 A2994 RMK AO2 SLP140 T02501011 10256 20161 56029
KHLN 062253Z VRB04KT 10SM CLR 24/M01 A2997 RMK AO2 SLP147 T02441011
KHLN 062153Z 08006KT 10SM CLR 24/M01 A3001 RMK AO2 SLP161 T02391006
KHLN 062053Z 01006KT 10SM CLR 23/00 A3004 RMK AO2 SLP172 T02280000 58027
KHLN 061953Z VRB06KT 10SM CLR 21/02 A3008 RMK AO2 SLP184 T02110017
KHLN 061853Z 32005KT 10SM CLR 18/02 A3011 RMK AO2 SLP198 T01830017
KHLN 061753Z 06005KT 10SM CLR 16/01 A3013 RMK AO2 SLP208 T01610011 10161 20022 58024
KHLN 061653Z VRB03KT 10SM CLR 13/01 A3016 RMK AO2 SLP223 T01280011
KHLN 061553Z 10004KT 10SM CLR 11/01 A3019 RMK AO2 SLP234 T01060006